CST,Max TemperatureF,Mean TemperatureF,Min TemperatureF,Max Dew PointF,MeanDew PointF,Min DewpointF,Max Humidity, Mean Humidity, Min Humidity, Max Sea Level PressureIn, Mean Sea Level PressureIn, Min Sea Level PressureIn, Max VisibilityMiles, Mean VisibilityMiles, Min VisibilityMiles, Max Wind SpeedMPH, Mean Wind SpeedMPH, Max Gust SpeedMPH,PrecipitationIn, CloudCover, Events, WindDirDegrees
2013-2-1,24,8,-7,12,-5,-15,73,63,48,30.38,30.26,30.04,10,10,10,14,8,20,0.00,6,,215
2013-2-2,26,22,17,21,12,5,86,69,54,30.17,30.08,29.97,10,9,1,17,11,24,0.00,5,Snow,271
2013-2-3,32,24,17,25,14,10,80,64,44,30.17,30.03,29.80,10,9,1,25,14,38,0.00,3,Snow,242
2013-2-4,33,26,19,25,17,14,86,73,60,29.99,29.90,29.75,10,10,7,18,9,23,0.00,6,,323
2013-2-5,42,32,21,30,23,16,86,75,61,30.11,29.93,29.81,10,10,7,17,9,26,0.00,3,,258
2013-2-6,42,33,24,32,24,19,86,79,61,30.12,30.03,29.93,10,7,1,13,5,18,0.00,2,,134
2013-2-7,,,,,,,,,,30.17,29.98,29.88,10,3,0,18,7,25,0.87,8,,328
2013-2-8,,,,,,,,,,30.36,30.30,30.18,10,10,7,15,9,21,0.00,8,,46
2013-2-9,,,,,,,,,,30.26,30.09,29.86,10,9,3,16,11,22,0.06,6,,143
2013-2-10,,,,,,,,,,29.85,29.52,29.29,10,7,2,32,15,44,0.15,8,,176
2013-2-11,35,32,28,23,22,21,74,68,60,30.13,29.95,29.62,10,10,10,33,24,44,0.03,7,,284
2013-2-12,44,32,21,25,21,18,86,64,37,30.14,30.02,29.87,10,10,7,14,8,16,0.00,2,,238
2013-2-13,50,37,24,28,25,19,80,63,40,29.87,29.78,29.69,10,10,10,14,9,17,0.00,1,,255
2013-2-14,44,35,24,28,26,14,81,68,52,30.16,29.92,29.71,10,10,10,22,12,30,0.00,5,,299
2013-2-15,28,22,17,14,10,1,74,60,31,30.30,30.27,30.16,10,10,10,17,10,22,0.00,1,,315
2013-2-16,35,22,10,16,11,5,85,65,33,30.28,30.18,30.10,10,10,10,10,6,,0.00,0,,281
2013-2-17,44,32,19,23,18,12,86,60,37,30.10,29.93,29.68,10,10,10,18,9,24,0.00,1,,130
2013-2-18,42,30,17,32,23,7,80,65,56,29.91,29.67,29.55,10,10,4,32,13,44,0.00,4,Rain-Snow,281
2013-2-19,24,17,10,9,2,0,73,53,34,30.34,30.14,29.92,10,10,10,30,21,39,0.00,4,Snow,305
2013-2-20,23,12,0,9,-1,-8,72,54,36,30.43,30.35,30.28,10,10,10,13,7,,0.00,1,,35
2013-2-21,24,20,17,21,14,9,86,72,59,30.31,30.08,29.80,10,6,0,21,11,28,0.00,5,Snow,81
2013-2-22,30,26,21,21,18,14,86,76,64,29.98,29.87,29.74,10,7,1,18,10,22,0.06,8,Snow,283
2013-2-23,33,22,12,18,14,9,85,68,48,29.97,29.94,29.91,10,10,10,15,8,,0.02,2,,230
2013-2-24,42,27,12,27,19,9,85,69,49,30.07,30.02,29.94,10,9,5,7,3,,0.00,0,,113
2013-2-25,39,32,26,28,25,21,80,72,60,30.08,30.01,29.86,10,8,7,13,5,,0.00,4,,62
2013-2-26,33,32,30,27,27,25,86,82,75,29.85,29.72,29.62,10,3,0,23,14,33,0.01,7,Snow,9
2013-2-27,30,28,26,27,24,21,86,82,74,29.95,29.83,29.75,10,3,1,18,13,24,0.00,8,Snow,321
2013-2-28,32,28,24,23,20,18,80,74,64,30.15,30.08,29.96,10,10,7,17,13,23,0.01,8,,323